Mc Kellar Sipes Regional Airport
KMKL : now visible

Airfield :











YOU CAN JOIN US ON...

 
LOGIN :

Register | Disclaimer

   EN    FR    IT 

 









Legend :    VFR   Marginal VFR   IFR   Intensive IFR   Very Intensive IFR
Visi :
Ceiling :
>= 8 km
>= 3000ft
5 to 8 km
1000 to 3000 ft
1500m to 5 km
500 to 1000 ft
800 to 1500m
200 to 500 ft
< 800m
< 200 ft
Symbols :   Thunderstorms  Fog  Heavy snow  Heavy precipitations  Wind > 20 kt






- Airport Elevation : 434 ft
- IATA code : MKL


KMKL - Mc Kellar Sipes Regional

CURRENT METAR :
  • 262353Z AUTO 06006KT 10SM OVC011 12/09 A3017 RMK AO2 SLP217 T01170094 10133 20117 53010

EXPIRED METARs :
  • 262253Z 02008KT 10SM OVC012 12/09 A3016 RMK AO2 SLP214 T01220094
  • 262216Z 07007KT 10SM OVC013 13/09 A3015 RMK AO2 T01280094
  • 262153Z 05009KT 10SM OVC015 13/09 A3015 RMK AO2 SLP208 T01280094

TAF KMKL
Valid from the 27 at 00:00 until the 28 at 00:00 UTC


262320Z 2700/2724 03008KT P6SM SCT009 OVC015
FM271000 01009KT P6SM VCSH OVC005
FM271600 03008KT P6SM SCT005 OVC015
FM272200 02010KT P6SM OVC025
KZME FIR / North America



MET'MAP, your aeronautical weather chart ! - Copyright ORBIFLY December 2007 - Disclaimer

ORBIFLY MET'MAP TEAM :

Programming & Development : Alexandra Zaïnal
Concept & original design : Baudouin d'Aumeries
Assistance for programming : Marc-Olivier Méhu
Technical & hardware support : Manuel Goepfert

Contact : metmap@orbifly.com




SOURCES & CREDITS :

   NOAA       Earth
Advisory